createdAt,value
2023-01-13T00:01:00.620Z,98228.66
2023-01-13T00:04:05.077Z,98223.44
2023-01-13T00:07:08.529Z,98207.72
2023-01-13T00:10:13.304Z,98215.69
2023-01-13T00:13:16.825Z,98216.50
2023-01-13T00:16:21.900Z,98215.38
2023-01-13T00:19:25.316Z,98211.78
2023-01-13T00:22:29.355Z,98210.34
2023-01-13T00:25:34.150Z,98199.97
2023-01-13T00:28:37.563Z,98204.66
2023-01-13T00:31:41.033Z,98212.13
2023-01-13T00:34:44.231Z,98203.03
2023-01-13T00:37:47.821Z,98210.16
2023-01-13T00:40:59.146Z,98222.63
2023-01-13T00:44:01.811Z,98219.06
2023-01-13T00:47:05.178Z,98221.50
2023-01-13T00:50:10.947Z,98209.22
2023-01-13T00:53:16.277Z,98206.91
2023-01-13T00:56:40.577Z,98199.28
2023-01-13T00:59:44.507Z,98198.81
2023-01-13T01:02:48.294Z,98195.59
2023-01-13T01:05:51.576Z,98204.16
2023-01-13T01:08:57.479Z,98199.28
2023-01-13T01:12:02.641Z,98197.66
2023-01-13T01:15:09.930Z,98185.38
2023-01-13T01:18:13.315Z,98182.63
2023-01-13T01:21:17.908Z,98178.56
2023-01-13T01:24:21.233Z,98177.09
2023-01-13T01:27:26.296Z,98175.47
2023-01-13T01:30:29.599Z,98179.38
2023-01-13T01:33:33.290Z,98172.22
2023-01-13T01:36:36.724Z,98172.56
2023-01-13T01:39:40.285Z,98146.97
2023-01-13T01:43:02.590Z,98138.69
2023-01-13T01:46:06.526Z,98130.75
2023-01-13T01:49:20.490Z,98142.25
2023-01-13T01:52:30.456Z,98146.59
2023-01-13T01:55:37.124Z,98138.34
2023-01-13T01:58:51.232Z,98146.13
2023-01-13T02:01:54.725Z,98139.50
2023-01-13T02:05:00.187Z,98123.63
2023-01-13T02:08:05.003Z,98131.38
2023-01-13T02:11:30.274Z,98125.34
2023-01-13T02:14:37.124Z,98106.41
2023-01-13T02:18:31.595Z,98134.13
2023-01-13T02:22:22.050Z,98126.16
2023-01-13T02:25:59.047Z,98119.84
2023-01-13T02:29:34.531Z,98094.06
2023-01-13T02:33:00.967Z,98113.84
2023-01-13T02:36:18.100Z,98110.59
2023-01-13T02:39:34.370Z,98112.22
2023-01-13T02:43:06.032Z,98110.59
2023-01-13T02:46:15.681Z,98101.88
2023-01-13T02:49:32.342Z,98101.88
2023-01-13T02:52:44.201Z,98105.09
2023-01-13T02:55:53.387Z,98096.38
2023-01-13T02:59:01.191Z,98087.63
2023-01-13T03:02:09.513Z,98094.06
2023-01-13T03:05:18.159Z,98090.50
2023-01-13T03:08:43.146Z,98086.13
2023-01-13T03:12:00.430Z,98067.19
2023-01-13T03:15:18.360Z,98084.53
2023-01-13T03:18:42.468Z,98079.69
2023-01-13T03:21:56.813Z,98056.50
2023-01-13T03:25:11.984Z,98076.59
2023-01-13T03:28:29.049Z,98081.31
2023-01-13T03:31:41.416Z,98067.84
2023-01-13T03:34:51.750Z,98079.69
2023-01-13T03:38:06.514Z,98057.97
2023-01-13T03:41:19.225Z,98071.75
2023-01-13T03:44:34.011Z,98059.91
2023-01-13T03:47:48.033Z,98066.22
2023-01-13T03:50:57.023Z,98072.53
2023-01-13T03:54:10.227Z,98070.91
2023-01-13T03:57:19.379Z,98073.69
2023-01-13T04:00:32.695Z,98078.88
2023-01-13T04:03:47.037Z,98076.44
2023-01-13T04:06:59.146Z,98078.88
2023-01-13T04:10:09.842Z,98073.69
2023-01-13T04:13:19.122Z,98056.34
2023-01-13T04:16:23.072Z,98057.97
2023-01-13T04:19:26.475Z,98072.53
2023-01-13T04:22:29.961Z,98059.25
2023-01-13T04:25:35.536Z,98066.22
2023-01-13T04:28:40.734Z,98067.03
2023-01-13T04:31:44.672Z,98056.34
2023-01-13T04:34:48.271Z,98070.75
2023-01-13T04:37:52.139Z,98058.28
2023-01-13T04:40:57.032Z,98059.91
2023-01-13T04:44:00.247Z,98048.09
2023-01-13T04:47:04.450Z,98033.53
2023-01-13T04:50:09.451Z,98036.28
2023-01-13T04:53:13.088Z,98062.19
2023-01-13T04:56:17.945Z,98060.22
2023-01-13T04:59:21.629Z,98063.78
2023-01-13T05:02:25.014Z,98057.47
2023-01-13T05:05:30.162Z,98070.91
2023-01-13T05:08:33.611Z,98067.69
2023-01-13T05:11:56.042Z,98068.50
2023-01-13T05:15:16.968Z,98062.50
2023-01-13T05:18:21.442Z,98066.53
2023-01-13T05:21:42.001Z,98068.63
2023-01-13T05:25:04.268Z,98065.25
2023-01-13T05:28:09.644Z,98062.00
2023-01-13T05:31:14.959Z,98072.69
2023-01-13T05:34:18.307Z,98076.88
2023-01-13T05:37:24.195Z,98069.94
2023-01-13T05:40:44.943Z,98076.88
2023-01-13T05:43:50.243Z,98077.38
2023-01-13T05:46:53.500Z,98070.91
2023-01-13T05:49:57.308Z,98073.81
2023-01-13T05:53:00.833Z,98071.25
2023-01-13T05:56:06.322Z,98076.88
2023-01-13T05:59:11.223Z,98071.38
2023-01-13T06:02:14.892Z,98065.88
2023-01-13T06:05:18.305Z,98069.75
2023-01-13T06:08:21.742Z,98070.56
2023-01-13T06:11:24.922Z,98078.00
2023-01-13T06:14:39.983Z,98085.50
2023-01-13T06:17:43.837Z,98077.06
2023-01-13T06:20:48.376Z,98079.19
2023-01-13T06:23:52.101Z,98069.28
2023-01-13T06:27:01.743Z,98075.94
2023-01-13T06:30:12.107Z,98063.78
2023-01-13T06:33:23.018Z,98069.63
2023-01-13T06:36:34.264Z,98072.03
2023-01-13T06:39:38.218Z,98073.50
2023-01-13T06:42:59.571Z,98070.44
2023-01-13T06:46:04.675Z,98079.81
2023-01-13T06:49:08.110Z,98077.88
2023-01-13T06:52:11.563Z,98072.38
2023-01-13T06:55:15.296Z,98070.75
2023-01-13T06:58:18.883Z,98051.31
2023-01-13T07:01:23.920Z,98078.19
2023-01-13T07:04:27.472Z,98073.31
2023-01-13T07:07:32.854Z,98077.69
2023-01-13T07:10:38.467Z,98084.31
2023-01-13T07:14:10.793Z,98077.50
2023-01-13T07:17:15.932Z,98081.06
2023-01-13T07:20:19.648Z,98081.25
2023-01-13T07:23:23.534Z,98075.88
2023-01-13T07:26:27.115Z,98074.75
2023-01-13T07:29:30.614Z,98084.47
2023-01-13T07:32:35.781Z,98085.75
2023-01-13T07:35:40.644Z,98087.72
2023-01-13T07:38:44.803Z,98081.72
2023-01-13T07:42:06.184Z,98093.22
2023-01-13T07:45:12.460Z,98081.41
2023-01-13T07:48:17.734Z,98095.16
2023-01-13T07:51:21.224Z,98072.00
2023-01-13T07:54:39.743Z,98070.38
2023-01-13T07:57:44.173Z,98082.53
2023-01-13T08:00:48.259Z,98082.53
2023-01-13T08:03:53.329Z,98086.91
2023-01-13T08:06:56.998Z,98080.13
2023-01-13T08:10:00.355Z,98075.06
2023-01-13T08:13:20.041Z,98083.81
2023-01-13T08:16:23.679Z,98081.56
2023-01-13T08:19:29.275Z,98088.38
2023-01-13T08:22:33.311Z,98090.00
2023-01-13T08:25:37.191Z,98081.44
2023-01-13T08:28:41.439Z,98081.56
2023-01-13T08:31:44.960Z,98084.00
2023-01-13T08:34:50.228Z,98087.75
2023-01-13T08:37:53.928Z,98081.13
2023-01-13T08:40:57.372Z,98083.25
2023-01-13T08:44:01.245Z,98090.06
2023-01-13T08:47:04.808Z,98094.41
2023-01-13T08:50:11.937Z,98094.06
2023-01-13T08:53:15.359Z,98081.13
2023-01-13T08:56:19.152Z,98092.47
2023-01-13T08:59:23.122Z,98085.19
2023-01-13T09:02:28.415Z,98095.38
2023-01-13T09:05:33.485Z,98089.69
2023-01-13T09:08:37.019Z,98093.66
2023-01-13T09:12:02.027Z,98089.75
2023-01-13T09:15:07.359Z,98088.31
2023-01-13T09:18:10.783Z,98087.19
2023-01-13T09:21:16.680Z,98093.97
2023-01-13T09:24:20.132Z,98090.09
2023-01-13T09:27:24.194Z,98087.00
2023-01-13T09:30:27.472Z,98083.94
2023-01-13T09:33:48.513Z,98079.25
2023-01-13T09:36:53.398Z,98075.34
2023-01-13T09:39:57.790Z,98064.84
2023-01-13T09:43:29.859Z,98070.66
2023-01-13T09:46:47.009Z,98062.22
2023-01-13T09:49:50.557Z,98063.84
2023-01-13T09:52:56.256Z,98070.16
2023-01-13T09:55:59.884Z,98065.97
2023-01-13T09:59:03.639Z,98057.69
2023-01-13T10:02:32.631Z,98041.97
2023-01-13T10:05:40.074Z,98038.09
2023-01-13T10:08:48.136Z,98049.13
2023-01-13T10:12:15.056Z,98049.91
2023-01-13T10:15:23.462Z,98041.34
2023-01-13T10:18:40.144Z,98041.84
2023-01-13T10:22:20.624Z,98050.91
2023-01-13T10:25:42.444Z,98044.59
2023-01-13T10:28:53.174Z,98043.78
2023-01-13T10:31:59.605Z,98039.06
2023-01-13T10:35:03.059Z,98035.69
2023-01-13T10:38:06.868Z,98033.69
2023-01-13T10:41:26.966Z,98025.94
2023-01-13T10:44:30.902Z,98030.47
2023-01-13T10:47:37.207Z,98028.69
2023-01-13T10:50:44.039Z,98023.19
2023-01-13T10:53:54.112Z,98023.66
2023-01-13T10:57:20.160Z,98015.41
2023-01-13T11:00:33.327Z,98009.41
2023-01-13T11:03:41.776Z,98002.28
2023-01-13T11:06:47.657Z,98005.19
2023-01-13T11:10:12.783Z,98012.81
2023-01-13T11:13:24.842Z,98009.72
2023-01-13T11:16:29.925Z,98014.44
2023-01-13T11:19:37.954Z,98012.81
2023-01-13T11:22:49.158Z,98000.16
2023-01-13T11:26:01.576Z,98010.06
2023-01-13T11:29:19.294Z,98007.31
2023-01-13T11:32:25.688Z,97999.53
2023-01-13T11:35:35.640Z,97990.28
2023-01-13T11:38:49.198Z,97982.84
2023-01-13T11:42:17.350Z,97997.75
2023-01-13T11:45:33.413Z,97994.16
2023-01-13T11:48:43.103Z,97979.13
2023-01-13T11:51:58.953Z,98000.97
2023-01-13T11:55:23.596Z,97990.78
2023-01-13T11:59:11.597Z,97987.22
2023-01-13T12:02:34.396Z,97987.53
2023-01-13T12:05:41.530Z,97982.03
2023-01-13T12:09:31.452Z,97988.97
2023-01-13T12:12:49.680Z,97955.31
2023-01-13T12:16:12.451Z,97976.03
2023-01-13T12:19:28.034Z,97977.66
2023-01-13T12:22:36.887Z,97972.94
2023-01-13T12:25:48.189Z,97967.28
2023-01-13T12:28:58.881Z,97967.13
2023-01-13T12:32:08.552Z,97967.13
2023-01-13T12:35:37.948Z,97965.97
2023-01-13T12:38:53.407Z,97961.13
2023-01-13T12:42:22.429Z,97953.81
2023-01-13T12:45:29.634Z,97974.25
2023-01-13T12:49:08.573Z,97970.34
2023-01-13T12:52:19.888Z,97963.88
2023-01-13T12:55:25.017Z,97970.34
2023-01-13T12:58:30.793Z,97975.22
2023-01-13T13:01:37.549Z,97960.63
2023-01-13T13:04:49.917Z,97967.41
2023-01-13T13:08:17.305Z,97975.22
2023-01-13T13:11:59.175Z,97984.28
2023-01-13T13:15:21.760Z,97971.31
2023-01-13T13:18:30.495Z,97982.34
2023-01-13T13:22:37.913Z,97976.03
2023-01-13T13:26:04.689Z,97974.06
2023-01-13T13:29:29.887Z,97968.09
2023-01-13T13:33:05.838Z,97969.38
2023-01-13T13:36:39.142Z,97980.25
2023-01-13T13:40:07.692Z,97973.72
2023-01-13T13:43:33.964Z,97978.09
2023-01-13T13:46:50.874Z,97976.03
2023-01-13T13:49:55.773Z,97985.44
2023-01-13T13:53:07.150Z,97980.88
2023-01-13T13:56:22.514Z,97991.13
2023-01-13T13:59:31.004Z,97985.91
2023-01-13T14:02:38.756Z,97977.25
2023-01-13T14:05:56.974Z,97998.25
2023-01-13T14:09:00.465Z,97997.88
2023-01-13T14:12:07.797Z,97989.19
2023-01-13T14:15:32.735Z,97992.91
2023-01-13T14:18:47.041Z,97961.97
2023-01-13T14:21:50.667Z,97983.31
2023-01-13T14:24:57.704Z,97999.78
2023-01-13T14:28:18.374Z,97994.91
2023-01-13T14:31:24.613Z,98014.13
2023-01-13T14:34:33.293Z,98002.22
2023-01-13T14:37:39.991Z,98013.56
2023-01-13T14:40:46.763Z,98008.38
2023-01-13T14:43:54.147Z,98006.50
2023-01-13T14:47:02.034Z,98011.41
2023-01-13T14:50:20.669Z,98020.78
2023-01-13T14:53:40.206Z,98023.25
2023-01-13T14:56:53.735Z,98013.53
2023-01-13T15:00:04.871Z,98017.44
2023-01-13T15:03:09.912Z,98021.97
2023-01-13T15:06:25.692Z,98003.72
2023-01-13T15:09:36.720Z,98014.06
2023-01-13T15:12:41.913Z,98010.97
2023-01-13T15:15:54.470Z,98020.84
2023-01-13T15:18:59.361Z,98028.16
2023-01-13T15:22:03.077Z,98036.91
2023-01-13T15:25:09.543Z,98014.41
2023-01-13T15:28:21.088Z,98020.88
2023-01-13T15:31:26.167Z,98025.72
2023-01-13T15:34:31.250Z,98028.16
2023-01-13T15:37:34.745Z,98028.97
2023-01-13T15:40:38.665Z,98031.72
2023-01-13T15:43:59.794Z,98031.22
2023-01-13T15:47:07.927Z,98044.34
2023-01-13T15:50:18.243Z,98034.47
2023-01-13T15:53:22.176Z,98037.72
2023-01-13T15:56:27.583Z,98043.22
2023-01-13T15:59:31.318Z,98037.72
2023-01-13T16:02:35.207Z,98042.09
2023-01-13T16:05:40.806Z,98044.84
2023-01-13T16:08:44.269Z,98037.41
2023-01-13T16:11:48.057Z,98035.47
2023-01-13T16:14:51.564Z,98052.78
2023-01-13T16:17:59.761Z,98044.22
2023-01-13T16:21:04.889Z,98040.16
2023-01-13T16:24:08.854Z,98036.75
2023-01-13T16:27:16.774Z,98039.03
2023-01-13T16:30:27.285Z,98040.31
2023-01-13T16:33:30.748Z,98042.28
2023-01-13T16:36:37.702Z,98056.53
2023-01-13T16:39:41.144Z,98055.72
2023-01-13T16:42:44.611Z,98063.34
2023-01-13T16:45:48.187Z,98048.91
2023-01-13T16:48:54.230Z,98075.13
2023-01-13T16:51:59.212Z,98057.81
2023-01-13T16:55:03.010Z,98074.00
2023-01-13T16:58:10.123Z,98064.94
2023-01-13T17:01:21.833Z,98044.84
2023-01-13T17:04:26.301Z,98063.47
2023-01-13T17:07:33.404Z,98086.31
2023-01-13T17:10:36.981Z,98068.84
2023-01-13T17:13:42.538Z,98082.44
2023-01-13T17:16:46.097Z,98082.44
2023-01-13T17:19:50.107Z,98094.06
2023-01-13T17:22:58.404Z,98075.94
2023-01-13T17:26:02.109Z,98091.50
2023-01-13T17:29:09.245Z,98088.25
2023-01-13T17:32:17.815Z,98088.94
2023-01-13T17:35:24.701Z,98088.13
2023-01-13T17:38:29.601Z,98092.31
2023-01-13T17:41:33.140Z,98079.69
2023-01-13T17:44:37.636Z,98101.59
2023-01-13T17:47:42.472Z,98099.97
2023-01-13T17:50:48.753Z,98089.56
2023-01-13T17:53:54.778Z,98110.97
2023-01-13T17:56:58.082Z,98104.03
2023-01-13T18:00:01.568Z,98118.09
2023-01-13T18:03:05.712Z,98127.19
2023-01-13T18:06:15.529Z,98128.91
2023-01-13T18:09:20.816Z,98141.25
2023-01-13T18:12:24.243Z,98150.34
2023-01-13T18:15:27.874Z,98107.41
2023-01-13T18:18:31.563Z,98103.66
2023-01-13T18:21:53.552Z,98118.75
2023-01-13T18:25:16.028Z,98121.19
2023-01-13T18:28:19.313Z,98122.00
2023-01-13T18:31:22.980Z,98117.28
2023-01-13T18:34:26.628Z,98106.59
2023-01-13T18:37:30.300Z,98124.44
2023-01-13T18:40:35.254Z,98126.50
2023-01-13T18:43:37.663Z,98127.69
2023-01-13T18:46:41.533Z,98134.78
2023-01-13T18:49:44.995Z,98141.91
2023-01-13T18:52:48.592Z,98144.66
2023-01-13T18:55:53.800Z,98149.34
2023-01-13T18:58:57.331Z,98141.09
2023-01-13T19:02:01.024Z,98135.13
2023-01-13T19:05:06.439Z,98145.34
2023-01-13T19:08:09.981Z,98143.06
2023-01-13T19:11:15.150Z,98144.19
2023-01-13T19:17:50.943Z,98164.47
2023-01-13T19:20:54.277Z,98158.16
2023-01-13T19:23:58.033Z,98160.09
2023-01-13T19:27:01.429Z,98163.66
2023-01-13T19:30:04.963Z,98171.09
2023-01-13T19:33:09.931Z,98167.34
2023-01-13T19:36:13.177Z,98159.09
2023-01-13T19:39:16.436Z,98185.38
2023-01-13T19:42:37.180Z,98187.31
2023-01-13T19:45:40.634Z,98183.91
2023-01-13T19:48:45.352Z,98186.66
2023-01-13T19:51:48.667Z,98184.88
2023-01-13T19:54:52.056Z,98196.84
2023-01-13T19:57:55.813Z,98190.53
2023-01-13T20:00:58.982Z,98205.09
2023-01-13T20:04:05.623Z,98207.06
2023-01-13T20:07:11.136Z,98193.13
2023-01-13T20:10:22.056Z,98215.81
2023-01-13T20:13:25.173Z,98218.56
2023-01-13T20:16:30.022Z,98233.16
2023-01-13T20:19:35.057Z,98245.78
2023-01-13T20:22:38.982Z,98236.41
2023-01-13T20:25:46.176Z,98259.25
2023-01-13T20:28:50.206Z,98241.72
2023-01-13T20:31:55.021Z,98227.63
2023-01-13T20:34:59.812Z,98241.41
2023-01-13T20:38:02.798Z,98244.16
2023-01-13T20:41:21.763Z,98235.91
2023-01-13T20:44:25.388Z,98255.19
2023-01-13T20:47:31.533Z,98254.84
2023-01-13T20:50:36.010Z,98268.47
2023-01-13T20:53:39.441Z,98286.28
2023-01-13T20:56:43.194Z,98272.84
2023-01-13T20:59:46.613Z,98272.84
2023-01-13T21:02:49.689Z,98289.34
2023-01-13T21:05:54.401Z,98287.91
2023-01-13T21:08:57.427Z,98300.88
2023-01-13T21:12:18.294Z,98299.25
2023-01-13T21:15:22.207Z,98308.00
2023-01-13T21:18:43.282Z,98304.44
2023-01-13T21:21:47.918Z,98309.63
2023-01-13T21:24:51.701Z,98313.53
2023-01-13T21:27:55.183Z,98309.63
2023-01-13T21:31:02.983Z,98306.06
2023-01-13T21:34:06.519Z,98307.69
2023-01-13T21:37:11.144Z,98301.50
2023-01-13T21:40:15.523Z,98313.53
2023-01-13T21:43:36.820Z,98324.72
2023-01-13T21:46:57.179Z,98331.34
2023-01-13T21:50:02.025Z,98321.47
2023-01-13T21:53:07.851Z,98324.41
2023-01-13T21:56:11.559Z,98329.41
2023-01-13T21:59:14.921Z,98340.94
2023-01-13T22:02:31.691Z,98340.63
2023-01-13T22:05:35.429Z,98335.75
2023-01-13T22:08:40.322Z,98347.25
2023-01-13T22:11:43.461Z,98346.94
2023-01-13T22:14:47.140Z,98343.03
2023-01-13T22:33:12.423Z,98350.16
2023-01-13T22:36:16.370Z,98351.63
2023-01-13T22:39:20.856Z,98345.31
2023-01-13T22:42:24.463Z,98340.75
2023-01-13T22:45:27.422Z,98355.53
2023-01-13T22:48:32.040Z,98356.34
2023-01-13T22:51:35.341Z,98353.59
2023-01-13T22:54:38.720Z,98359.09
2023-01-13T22:57:47.700Z,98355.22
2023-01-13T23:00:51.850Z,98351.63
2023-01-13T23:03:56.900Z,98360.72
2023-01-13T23:07:00.973Z,98352.44
2023-01-13T23:10:04.212Z,98356.81
2023-01-13T23:13:09.585Z,98354.06
2023-01-13T23:16:14.719Z,98347.72
2023-01-13T23:19:19.508Z,98360.38
2023-01-13T23:22:22.553Z,98358.59
2023-01-13T23:25:25.937Z,98363.47
2023-01-13T23:28:29.084Z,98368.47
2023-01-13T23:31:32.689Z,98370.91
2023-01-13T23:34:37.226Z,98378.38
2023-01-13T23:37:40.757Z,98371.88
2023-01-13T23:40:46.413Z,98375.28
2023-01-13T23:43:53.858Z,98376.44
2023-01-13T23:46:56.802Z,98379.81
2023-01-13T23:50:01.538Z,98396.53
2023-01-13T23:53:04.749Z,98375.75
2023-01-13T23:56:11.754Z,98377.88
2023-01-13T23:59:14.721Z,98384.81
